Time;durP1;ratioP1;P1;durP2;ratioP2;P2;SDS_P1;SDS_P2;PMS_P1;PMS_P2;Temp;Humidity;BMP_temperature;BMP_pressure;BME280_temperature;BME280_humidity;BME280_pressure;Samples;Min_cycle;Max_cycle;Signal;HPM_P1;HPM_P2
2022/09/12 00:03:59;;;;;;;18.23;10.95;;;15.00;99.90;;;;;;12421892;28;20410;-39
2022/09/12 00:10:00;;;;;;;17.17;11.70;;;14.90;99.90;;;;;;12433988;28;20046;-40
2022/09/12 00:16:03;;;;;;;14.40;10.88;;;14.90;99.90;;;;;;12431905;28;20057;-38
2022/09/12 00:22:05;;;;;;;13.75;11.00;;;15.10;99.90;;;;;;12423977;28;20700;-39
2022/09/12 00:28:07;;;;;;;16.92;12.13;;;15.00;99.90;;;;;;12436729;28;20053;-39
2022/09/12 00:34:09;;;;;;;17.35;12.02;;;14.80;99.90;;;;;;12441506;28;20037;-39
2022/09/12 00:40:10;;;;;;;17.20;12.05;;;14.80;99.90;;;;;;12430900;28;20049;-39
2022/09/12 00:46:26;;;;;;;21.20;12.85;;;14.80;99.90;;;;;;12424200;28;20123;-38
2022/09/12 00:52:51;;;;;;;18.88;12.32;;;14.70;99.90;;;;;;12425531;28;20068;-39
2022/09/12 00:59:03;;;;;;;16.45;11.90;;;14.90;99.90;;;;;;12438932;28;20417;-39
2022/09/12 01:05:07;;;;;;;19.98;13.18;;;14.80;99.90;;;;;;12443212;28;20386;-38
2022/09/12 01:11:09;;;;;;;16.15;12.43;;;14.80;99.90;;;;;;12433558;28;20046;-39
2022/09/12 01:17:13;;;;;;;17.70;12.90;;;14.80;99.90;;;;;;12432761;28;20041;-38
2022/09/12 01:23:54;;;;;;;17.50;12.88;;;14.60;99.90;;;;;;12424136;28;20045;-38
2022/09/12 01:30:16;;;;;;;18.52;12.90;;;14.60;99.90;;;;;;12438205;28;20418;-38
2022/09/12 01:36:31;;;;;;;17.95;12.57;;;14.40;99.90;;;;;;12428568;28;20045;-38
2022/09/12 01:43:06;;;;;;;20.20;12.88;;;14.40;99.90;;;;;;12427608;28;20046;-40
2022/09/12 01:49:18;;;;;;;14.38;10.93;;;14.50;99.90;;;;;;12358341;28;20054;-38
2022/09/12 01:55:28;;;;;;;18.35;12.68;;;14.50;99.90;;;;;;12429658;28;20046;-38
2022/09/12 02:01:34;;;;;;;18.88;12.90;;;14.30;99.90;;;;;;12440763;28;20050;-38
2022/09/12 02:07:52;;;;;;;20.17;14.52;;;14.20;99.90;;;;;;12438172;28;20049;-39
2022/09/12 02:14:09;;;;;;;16.98;12.73;;;14.10;99.90;;;;;;12434044;28;20042;-38
2022/09/12 02:20:19;;;;;;;17.13;12.15;;;14.20;99.90;;;;;;12433718;28;20050;-39
2022/09/12 02:26:51;;;;;;;17.38;12.10;;;14.30;99.90;;;;;;12438955;28;20052;-38
2022/09/12 02:33:19;;;;;;;17.40;12.90;;;14.30;99.90;;;;;;12441783;28;20446;-38
2022/09/12 02:39:21;;;;;;;22.85;13.48;;;14.20;99.90;;;;;;12435950;28;20128;-39
2022/09/12 02:45:23;;;;;;;18.02;13.18;;;14.10;99.90;;;;;;12438028;28;20441;-39
2022/09/12 02:51:25;;;;;;;17.00;12.43;;;14.00;99.90;;;;;;12426216;28;20422;-38
2022/09/12 02:57:27;;;;;;;19.83;13.85;;;14.00;99.90;;;;;;12427242;28;20049;-41
2022/09/12 03:03:34;;;;;;;19.90;14.38;;;13.90;99.90;;;;;;12439054;28;20041;-38
2022/09/12 03:09:57;;;;;;;24.27;14.25;;;13.90;99.90;;;;;;12431563;28;20581;-38
2022/09/12 03:16:14;;;;;;;19.08;13.55;;;13.90;99.90;;;;;;12438250;28;20053;-39
2022/09/12 03:22:53;;;;;;;21.33;13.43;;;13.80;99.90;;;;;;12423220;28;20981;-40
2022/09/12 03:28:56;;;;;;;19.42;13.98;;;13.80;99.90;;;;;;12425113;28;20049;-39
2022/09/12 03:34:58;;;;;;;17.17;12.40;;;13.90;99.90;;;;;;12428747;28;20050;-38
2022/09/12 03:41:00;;;;;;;21.98;14.32;;;13.80;99.90;;;;;;12412957;28;20045;-38
2022/09/12 03:47:01;;;;;;;21.50;14.93;;;13.70;99.90;;;;;;12418687;28;20042;-39
2022/09/12 03:53:03;;;;;;;21.63;14.68;;;13.70;99.90;;;;;;12416724;28;20041;-38
2022/09/12 03:59:05;;;;;;;22.17;14.38;;;13.70;99.90;;;;;;12428112;28;20046;-38
2022/09/12 04:05:07;;;;;;;21.42;14.57;;;13.70;99.90;;;;;;12433889;28;20050;-38
2022/09/12 04:11:11;;;;;;;22.63;14.07;;;13.70;99.90;;;;;;12441969;28;20045;-38
2022/09/12 04:17:14;;;;;;;22.95;15.65;;;13.60;99.90;;;;;;12431019;28;20061;-39
2022/09/12 04:23:16;;;;;;;22.40;14.55;;;13.40;99.90;;;;;;12417163;28;20532;-38
2022/09/12 04:29:17;;;;;;;21.70;14.50;;;13.50;99.90;;;;;;12427258;28;20533;-39
2022/09/12 04:35:19;;;;;;;19.00;13.05;;;13.40;99.90;;;;;;12428293;28;20053;-38
2022/09/12 04:41:24;;;;;;;20.60;13.68;;;13.40;99.90;;;;;;12431036;28;20045;-39
2022/09/12 04:47:27;;;;;;;18.13;12.98;;;13.40;99.90;;;;;;12429461;28;20053;-39
2022/09/12 04:53:28;;;;;;;17.38;12.70;;;13.40;99.90;;;;;;12400417;28;20053;-39
2022/09/12 04:59:30;;;;;;;16.95;13.35;;;13.40;99.90;;;;;;12426554;28;20486;-38
2022/09/12 05:05:32;;;;;;;21.55;14.35;;;13.40;99.90;;;;;;12431127;28;20060;-38
2022/09/12 05:11:36;;;;;;;20.55;14.25;;;13.40;99.90;;;;;;12430971;28;20038;-38
2022/09/12 05:17:58;;;;;;;22.85;13.05;;;13.40;99.90;;;;;;12427280;28;20049;-38
2022/09/12 05:24:00;;;;;;;16.05;10.38;;;13.30;99.90;;;;;;12422851;28;20049;-38
2022/09/12 05:30:01;;;;;;;15.68;10.20;;;13.20;99.90;;;;;;12431969;28;20410;-39
2022/09/12 05:36:05;;;;;;;14.75;10.32;;;13.10;99.90;;;;;;12439610;28;20046;-38
2022/09/12 05:42:08;;;;;;;14.50;9.98;;;13.00;99.90;;;;;;12422960;28;20045;-38
2022/09/12 05:48:09;;;;;;;16.65;10.80;;;13.00;99.90;;;;;;12431116;28;20498;-38
2022/09/12 05:54:14;;;;;;;17.50;11.40;;;13.00;99.90;;;;;;12436638;28;20453;-38
2022/09/12 06:00:16;;;;;;;;;;;13.00;99.90;;;;;;12438736;28;20045;-39
2022/09/12 06:06:20;;;;;;;17.02;11.07;;;13.20;99.90;;;;;;12438176;28;19921;-39
2022/09/12 06:12:22;;;;;;;15.15;10.50;;;13.30;99.90;;;;;;12439908;28;20406;-38
2022/09/12 06:18:24;;;;;;;12.38;9.00;;;13.20;99.90;;;;;;12446539;28;20516;-38
2022/09/12 06:24:26;;;;;;;12.77;10.00;;;13.10;99.90;;;;;;12435873;28;20050;-39
2022/09/12 06:30:27;;;;;;;11.98;9.27;;;13.10;99.90;;;;;;12437482;28;20054;-38
2022/09/12 06:36:32;;;;;;;21.42;9.70;;;13.20;99.90;;;;;;12441004;28;20128;-38
2022/09/12 06:42:34;;;;;;;;;;;13.20;99.90;;;;;;12429587;28;20053;-38
2022/09/12 06:48:36;;;;;;;11.57;9.73;;;13.20;99.90;;;;;;12423473;28;20357;-38
2022/09/12 06:54:42;;;;;;;17.92;12.02;;;13.00;99.90;;;;;;12430521;28;20061;-38
2022/09/12 07:00:44;;;;;;;13.85;10.70;;;13.30;99.90;;;;;;12434324;28;20493;-38
2022/09/12 07:06:46;;;;;;;15.02;11.07;;;13.40;99.90;;;;;;12436708;28;20486;-39
2022/09/12 07:12:48;;;;;;;13.10;10.75;;;13.60;99.90;;;;;;12437658;28;20410;-38
2022/09/12 07:18:52;;;;;;;14.20;11.10;;;13.50;99.90;;;;;;12428949;28;20046;-39
2022/09/12 07:24:54;;;;;;;14.02;11.38;;;13.70;99.90;;;;;;12430351;28;20053;-38
2022/09/12 07:30:57;;;;;;;14.27;10.25;;;13.80;99.90;;;;;;12435586;28;20057;-38
2022/09/12 07:36:58;;;;;;;14.20;11.13;;;14.10;99.90;;;;;;12425997;28;20050;-38
2022/09/12 07:43:00;;;;;;;14.80;11.48;;;14.20;99.90;;;;;;12428338;28;20525;-38
2022/09/12 07:49:02;;;;;;;16.70;12.70;;;14.50;99.90;;;;;;12429293;28;20054;-38
2022/09/12 07:55:04;;;;;;;15.02;11.80;;;14.60;99.90;;;;;;12423647;28;20090;-40
2022/09/12 08:01:21;;;;;;;13.98;11.45;;;14.60;99.90;;;;;;12436539;28;20054;-38
2022/09/12 08:07:23;;;;;;;14.15;11.27;;;14.90;99.90;;;;;;12422600;28;20538;-38
2022/09/12 08:13:27;;;;;;;13.20;10.57;;;15.00;99.90;;;;;;12430709;28;20046;-39
2022/09/12 08:19:30;;;;;;;14.73;10.55;;;15.30;99.90;;;;;;12429490;28;20041;-39
2022/09/12 08:25:33;;;;;;;13.93;9.90;;;15.40;99.90;;;;;;12429831;28;20042;-39
2022/09/12 08:31:37;;;;;;;12.43;8.20;;;15.70;99.90;;;;;;12432208;28;20058;-40
2022/09/12 08:37:39;;;;;;;11.70;8.70;;;16.10;99.90;;;;;;12435348;28;20768;-39
2022/09/12 08:43:51;;;;;;;8.90;5.07;;;16.30;99.90;;;;;;12415593;28;20041;-39
2022/09/12 08:50:09;;;;;;;8.52;5.38;;;16.50;99.90;;;;;;12423995;28;20046;-38
2022/09/12 08:56:11;;;;;;;7.73;5.43;;;17.00;99.90;;;;;;12426902;28;20050;-39
2022/09/12 09:02:28;;;;;;;12.45;5.03;;;17.40;99.90;;;;;;12430934;28;20038;-39
2022/09/12 09:09:07;;;;;;;6.97;4.63;;;17.70;99.90;;;;;;12427747;28;20046;-39
2022/09/12 09:15:33;;;;;;;7.45;4.85;;;17.80;99.90;;;;;;12420858;28;20041;-39
2022/09/12 09:21:53;;;;;;;7.35;4.60;;;18.00;99.90;;;;;;12419728;28;20107;-39
2022/09/12 09:28:04;;;;;;;6.60;4.32;;;18.20;99.90;;;;;;12420461;28;20046;-39
2022/09/12 09:34:19;;;;;;;5.35;4.00;;;18.30;99.90;;;;;;12430314;28;20049;-39
2022/09/12 09:40:26;;;;;;;;;;;18.50;99.90;;;;;;12416864;28;20060;-39
2022/09/12 09:46:28;;;;;;;6.57;4.57;;;18.80;99.90;;;;;;12428062;28;19932;-39
2022/09/12 09:52:31;;;;;;;6.57;4.28;;;18.90;99.90;;;;;;12434760;28;20042;-39
2022/09/12 09:58:34;;;;;;;8.30;4.00;;;18.90;99.90;;;;;;12434239;28;20050;-39
2022/09/12 10:04:39;;;;;;;7.93;4.40;;;19.10;99.90;;;;;;12410394;28;20084;-39
2022/09/12 10:11:00;;;;;;;7.35;4.43;;;19.20;99.90;;;;;;12429321;28;20058;-40
2022/09/12 10:17:45;;;;;;;7.28;4.20;;;19.20;99.90;;;;;;12426340;28;20077;-39
2022/09/12 10:23:56;;;;;;;5.00;3.30;;;19.20;99.90;;;;;;12418167;28;20053;-39
2022/09/12 10:30:18;;;;;;;8.52;4.20;;;19.30;99.90;;;;;;12438459;28;20057;-39
2022/09/12 10:36:22;;;;;;;5.88;3.85;;;19.40;99.90;;;;;;12432457;28;20061;-40
2022/09/12 10:42:43;;;;;;;6.03;3.85;;;19.60;99.90;;;;;;12432440;28;20050;-39
2022/09/12 10:48:49;;;;;;;4.45;3.28;;;19.60;99.90;;;;;;12434842;28;20053;-39
2022/09/12 10:54:52;;;;;;;5.53;3.72;;;19.60;99.90;;;;;;12425292;28;20072;-39
2022/09/12 11:01:06;;;;;;;5.28;3.50;;;19.70;99.90;;;;;;12430182;28;20433;-39
2022/09/12 11:07:33;;;;;;;8.10;3.42;;;20.00;99.90;;;;;;12438672;28;20049;-39
2022/09/12 11:13:49;;;;;;;5.10;3.30;;;20.00;99.90;;;;;;12430157;28;20038;-38
2022/09/12 11:20:08;;;;;;;4.57;3.20;;;20.40;99.90;;;;;;12422605;28;20621;-39
2022/09/12 11:26:29;;;;;;;7.38;3.70;;;20.80;99.90;;;;;;12432565;28;20474;-38
2022/09/12 11:33:08;;;;;;;7.38;3.80;;;21.10;99.90;;;;;;12440556;28;20038;-39
2022/09/12 11:39:42;;;;;;;6.10;4.00;;;21.50;99.90;;;;;;12430650;28;20076;-39
2022/09/12 11:45:45;;;;;;;6.43;3.20;;;21.80;99.90;;;;;;12423633;28;20046;-39
2022/09/12 11:51:50;;;;;;;7.90;3.80;;;22.10;99.90;;;;;;12420668;28;20513;-38
2022/09/12 11:57:57;;;;;;;9.48;4.10;;;21.90;99.90;;;;;;12430698;28;20052;-39
2022/09/12 12:04:05;;;;;;;5.38;3.80;;;22.40;99.90;;;;;;12429046;28;20037;-39
2022/09/12 12:10:40;;;;;;;5.95;4.15;;;22.10;99.90;;;;;;12431130;28;20068;-39
2022/09/12 12:16:43;;;;;;;8.32;4.05;;;22.30;99.90;;;;;;12397325;28;20044;-40
2022/09/12 12:22:54;;;;;;;8.68;4.22;;;22.60;99.90;;;;;;12421139;28;20061;-39
2022/09/12 12:28:57;;;;;;;6.50;3.70;;;22.60;99.90;;;;;;12434584;28;20041;-39
2022/09/12 12:35:35;;;;;;;6.60;3.70;;;22.50;99.90;;;;;;12413220;28;20391;-40
2022/09/12 12:41:41;;;;;;;7.78;3.78;;;22.80;99.90;;;;;;12428919;28;20049;-39
2022/09/12 12:47:56;;;;;;;5.70;3.60;;;22.90;99.90;;;;;;12435816;28;20478;-39
2022/09/12 12:54:00;;;;;;;7.40;4.47;;;23.30;99.90;;;;;;12423622;28;20115;-39
2022/09/12 13:00:27;;;;;;;7.00;3.38;;;23.60;99.90;;;;;;12426990;28;20045;-39
2022/09/12 13:06:41;;;;;;;8.45;4.03;;;23.50;99.90;;;;;;12436009;28;20042;-39
2022/09/12 13:12:46;;;;;;;5.82;3.35;;;24.00;99.90;;;;;;12432875;28;20045;-40
2022/09/12 13:18:48;;;;;;;6.38;3.83;;;23.90;99.90;;;;;;12423751;28;20050;-39
2022/09/12 13:24:51;;;;;;;5.67;3.47;;;23.70;99.90;;;;;;12423417;28;20088;-39
2022/09/12 13:31:10;;;;;;;4.97;3.50;;;23.70;99.90;;;;;;12427665;28;20049;-39
2022/09/12 13:37:26;;;;;;;5.75;3.33;;;23.50;99.90;;;;;;12424920;28;20042;-39
2022/09/12 13:43:47;;;;;;;5.10;3.22;;;23.50;99.90;;;;;;12423579;28;20038;-39
2022/09/12 13:49:49;;;;;;;6.60;3.55;;;23.50;99.90;;;;;;12422121;28;20061;-40
2022/09/12 13:55:55;;;;;;;4.88;3.30;;;23.30;99.90;;;;;;12440136;28;20050;-39
2022/09/12 14:01:57;;;;;;;4.75;2.78;;;23.50;99.90;;;;;;12432193;28;20065;-39
2022/09/12 14:08:03;;;;;;;4.13;2.75;;;23.70;99.90;;;;;;12440528;28;20082;-39
2022/09/12 14:14:17;;;;;;;3.97;2.58;;;23.30;99.90;;;;;;12439810;28;20510;-39
2022/09/12 14:20:22;;;;;;;5.13;3.00;;;23.20;99.90;;;;;;12429629;28;20050;-39
2022/09/12 14:26:25;;;;;;;8.88;3.58;;;23.20;99.90;;;;;;12443528;28;20072;-39
2022/09/12 14:32:26;;;;;;;6.32;3.28;;;23.00;99.90;;;;;;12441053;28;20437;-40
2022/09/12 14:38:36;;;;;;;6.45;3.15;;;22.80;99.90;;;;;;12425388;28;20046;-39
2022/09/12 14:44:39;;;;;;;4.63;2.90;;;22.80;99.90;;;;;;12420485;28;20045;-39
2022/09/12 14:50:41;;;;;;;;;;;22.80;99.90;;;;;;12429065;28;20046;-39
2022/09/12 14:56:51;;;;;;;;;;;22.80;99.90;;;;;;12422768;28;19922;-39
2022/09/12 15:02:53;;;;;;;;;;;22.70;99.90;;;;;;12435446;28;20297;-39
2022/09/12 15:08:56;;;;;;;;;;;23.00;99.90;;;;;;12435529;28;19925;-39
2022/09/12 15:15:15;;;;;;;;;;;23.10;99.90;;;;;;12436372;28;20307;-39
2022/09/12 15:21:17;;;;;;;;;;;23.20;99.90;;;;;;12431402;28;20290;-39
2022/09/12 15:27:20;;;;;;;;;;;23.40;99.90;;;;;;12435506;28;19922;-39
2022/09/12 15:33:23;;;;;;;;;;;23.20;99.90;;;;;;12435112;28;19928;-39
2022/09/12 15:39:26;;;;;;;;;;;23.10;99.90;;;;;;12428013;28;19925;-39
2022/09/12 15:45:29;;;;;;;;;;;23.10;99.90;;;;;;12429484;28;19926;-39
2022/09/12 15:51:32;;;;;;;;;;;23.00;99.90;;;;;;12429162;28;19921;-40
2022/09/12 15:57:33;;;;;;;;;;;23.00;99.90;;;;;;12435981;28;19941;-40
2022/09/12 16:03:35;;;;;;;;;;;22.70;99.90;;;;;;12429708;28;20140;-40
2022/09/12 16:09:37;;;;;;;;;;;22.60;99.90;;;;;;12435429;28;20293;-39
2022/09/12 16:15:38;;;;;;;;;;;22.70;99.90;;;;;;12432289;28;19948;-39
2022/09/12 16:21:40;;;;;;;;;;;22.40;99.90;;;;;;12427646;28;20408;-40
2022/09/12 16:27:42;;;;;;;;;;;22.30;99.90;;;;;;12429714;28;19932;-39
2022/09/12 16:33:44;;;;;;;;;;;22.30;99.90;;;;;;12421837;28;19932;-40
2022/09/12 16:39:47;;;;;;;;;;;22.10;99.90;;;;;;12423002;28;19932;-39
2022/09/12 16:45:49;;;;;;;;;;;21.90;99.90;;;;;;12426193;28;20014;-39
2022/09/12 16:51:51;;;;;;;;;;;21.80;99.90;;;;;;12427789;28;20396;-40
2022/09/12 16:57:53;;;;;;;;;;;21.60;99.90;;;;;;12433806;28;19948;-40
2022/09/12 17:03:55;;;;;;;;;;;21.60;99.90;;;;;;12426081;28;19929;-39
2022/09/12 17:09:57;;;;;;;;;;;21.40;99.90;;;;;;12430892;28;19922;-40
2022/09/12 17:15:58;;;;;;;;;;;21.40;99.90;;;;;;12427899;28;19932;-39
2022/09/12 17:22:00;;;;;;;;;;;21.00;99.90;;;;;;12430260;28;20048;-40
2022/09/12 17:28:04;;;;;;;;;;;20.80;99.90;;;;;;12437074;28;19921;-39
2022/09/12 17:34:06;;;;;;;;;;;20.70;99.90;;;;;;12436862;28;19928;-39
2022/09/12 17:40:08;;;;;;;;;;;20.50;99.90;;;;;;12433852;28;19932;-40
2022/09/12 17:46:10;;;;;;;;;;;20.40;99.90;;;;;;12387861;28;20403;-39
2022/09/12 17:52:12;;;;;;;;;;;20.30;99.90;;;;;;12435926;28;19921;-39
2022/09/12 17:58:13;;;;;;;;;;;20.00;99.90;;;;;;12432157;28;20410;-39
2022/09/12 18:04:16;;;;;;;;;;;19.70;99.90;;;;;;12435694;28;19921;-39
2022/09/12 18:10:17;;;;;;;;;;;19.50;99.90;;;;;;12435631;28;20012;-40
2022/09/12 18:16:19;;;;;;;;;;;19.40;99.90;;;;;;12439562;28;19928;-40
2022/09/12 18:22:20;;;;;;;;;;;19.30;99.90;;;;;;12433339;28;19956;-40
2022/09/12 18:28:22;;;;;;;;;;;19.40;99.90;;;;;;12425979;28;19932;-39
2022/09/12 18:34:24;;;;;;;;;;;19.50;99.90;;;;;;12437708;28;20355;-40
2022/09/12 18:40:27;;;;;;;;;;;19.50;99.90;;;;;;12428511;28;19925;-39
2022/09/12 18:46:29;;;;;;;;;;;19.40;99.90;;;;;;12423244;28;19929;-38
2022/09/12 18:52:31;;;;;;;;;;;19.30;99.90;;;;;;12429793;28;19921;-39
2022/09/12 18:58:34;;;;;;;;;;;19.40;99.90;;;;;;12427872;28;19922;-40
2022/09/12 19:04:36;;;;;;;;;;;19.30;99.90;;;;;;12434813;28;19932;-39
2022/09/12 19:10:37;;;;;;;;;;;19.20;99.90;;;;;;12434936;28;19944;-39
2022/09/12 19:16:40;;;;;;;;;;;19.20;99.90;;;;;;12435540;28;19925;-40
2022/09/12 19:22:41;;;;;;;;;;;19.10;99.90;;;;;;12430591;28;20238;-38
2022/09/12 19:28:44;;;;;;;;;;;19.10;99.90;;;;;;12440655;28;20293;-38
2022/09/12 19:34:45;;;;;;;;;;;19.00;99.90;;;;;;12437232;28;19925;-39
2022/09/12 19:40:57;;;;;;;;;;;19.00;99.90;;;;;;12433837;28;19932;-38
2022/09/12 19:46:59;;;;;;;;;;;18.90;99.90;;;;;;12426004;28;19926;-40
2022/09/12 19:53:00;;;;;;;;;;;18.90;99.90;;;;;;12427928;28;19928;-40
2022/09/12 19:59:02;;;;;;;;;;;18.70;99.90;;;;;;12433747;28;19921;-38
2022/09/12 20:05:04;;;;;;;;;;;18.70;99.90;;;;;;12431047;28;19921;-39
2022/09/12 20:11:06;;;;;;;;;;;18.70;99.90;;;;;;12426092;28;19921;-39
2022/09/12 20:17:07;;;;;;;;;;;18.60;99.90;;;;;;12436223;28;19926;-40
2022/09/12 20:23:09;;;;;;;;;;;18.60;99.90;;;;;;12431603;28;20270;-38
2022/09/12 20:29:11;;;;;;;;;;;18.50;99.90;;;;;;12432300;28;19925;-39
2022/09/12 20:35:12;;;;;;;;;;;18.50;99.90;;;;;;12434491;28;19928;-38
2022/09/12 20:41:14;;;;;;;;;;;18.40;99.90;;;;;;12427182;28;19932;-39
2022/09/12 20:47:16;;;;;;;;;;;18.40;99.90;;;;;;12426091;28;19921;-38
2022/09/12 20:53:17;;;;;;;;;;;18.30;99.90;;;;;;12418869;28;19925;-39
2022/09/12 20:59:20;;;;;;;;;;;18.30;99.90;;;;;;12432794;28;19932;-38
2022/09/12 21:05:22;;;;;;;;;;;18.20;99.90;;;;;;12426448;28;19937;-39
2022/09/12 21:11:24;;;;;;;;;;;18.20;99.90;;;;;;12436072;28;19921;-40
2022/09/12 21:17:25;;;;;;;;;;;18.10;99.90;;;;;;12418975;28;19931;-39
2022/09/12 21:23:27;;;;;;;;;;;18.10;99.90;;;;;;12421103;28;20273;-39
2022/09/12 21:29:28;;;;;;;;;;;18.10;99.90;;;;;;12433600;28;19928;-39
2022/09/12 21:35:32;;;;;;;;;;;18.10;99.90;;;;;;12427193;28;19925;-39
2022/09/12 21:41:34;;;;;;;;;;;18.20;99.90;;;;;;12422142;28;20381;-39
2022/09/12 21:47:37;;;;;;;;;;;18.20;99.90;;;;;;12424978;28;19922;-40
2022/09/12 21:53:40;;;;;;;;;;;18.20;99.90;;;;;;12425544;28;19944;-38
2022/09/12 21:59:41;;;;;;;;;;;18.20;99.90;;;;;;12426575;28;19925;-38
2022/09/12 22:05:43;;;;;;;;;;;18.20;99.90;;;;;;12427268;28;19926;-38
2022/09/12 22:11:45;;;;;;;;;;;18.20;99.90;;;;;;12428890;28;19925;-38
2022/09/12 22:17:47;;;;;;;;;;;18.20;99.90;;;;;;12443220;28;20323;-38
2022/09/12 22:30:09;;;;;;;;;;;18.20;99.90;;;;;;12438814;28;19922;-39
2022/09/12 22:36:11;;;;;;;;;;;18.00;99.90;;;;;;12439634;28;19921;-38
2022/09/12 22:42:13;;;;;;;;;;;18.10;99.90;;;;;;12428971;28;19929;-38
2022/09/12 22:48:16;;;;;;;;;;;18.10;99.90;;;;;;12434028;28;19925;-39
2022/09/12 22:54:17;;;;;;;;;;;18.00;99.90;;;;;;12427458;28;19928;-38
2022/09/12 23:00:19;;;;;;;;;;;18.00;99.90;;;;;;12438113;28;19928;-38
2022/09/12 23:06:21;;;;;;;;;;;17.90;99.90;;;;;;12439822;28;19929;-39
2022/09/12 23:12:22;;;;;;;;;;;17.90;99.90;;;;;;12430927;28;20370;-38
2022/09/12 23:18:24;;;;;;;;;;;18.00;99.90;;;;;;12435967;28;19929;-38
2022/09/12 23:24:26;;;;;;;;;;;17.90;99.90;;;;;;12428561;28;19921;-38
2022/09/12 23:30:28;;;;;;;;;;;17.90;99.90;;;;;;12432275;28;19926;-38
2022/09/12 23:36:29;;;;;;;;;;;18.00;99.90;;;;;;12429100;28;20309;-38
2022/09/12 23:42:31;;;;;;;;;;;18.00;99.90;;;;;;12425634;28;20362;-38
2022/09/12 23:48:34;;;;;;;;;;;18.20;99.90;;;;;;12433383;28;19925;-40
2022/09/12 23:54:35;;;;;;;;;;;18.20;99.90;;;;;;12426774;28;19929;-39
